Aviation Digital Data Service (ADDS)

Output produced by METARs form (0146 UTC 19 September 2014)
found at http://www.aviationweather.gov/adds/metars/
 
KFIG 190054Z AUTO 34005KT 10SM OVC050 12/10 A3013 RMK AO2 SLP205 T01220100
KFIG 182354Z AUTO 36004KT 10SM OVC070 14/10 A3010 RMK AO2 SLP196 T01390100 10200 20139 53008
KFIG 182254Z AUTO 35003KT 10SM CLR 17/08 A3009 RMK AO2 SLP190 T01670078
KFIG 182154Z AUTO 32004KT 10SM CLR 19/06 A3007 RMK AO2 SLP183 T01940061
KFIG 182054Z AUTO 36005KT 10SM BKN065 20/07 A3007 RMK AO2 SLP184 T02000072 58002
KFIG 181954Z AUTO 35004KT 10SM BKN055 19/06 A3008 RMK AO2 SLP185 T01940056
KFIG 181854Z AUTO VRB04KT 10SM FEW050 19/06 A3008 RMK AO2 SLP185 T01890061
KFIG 181754Z AUTO VRB06KT 10SM BKN050 19/07 A3008 RMK AO2 SLP186 T01890072 10194 20072 50002
KFIG 181654Z AUTO 01008KT 10SM FEW047 SCT055 19/06 A3008 RMK AO2 SLP187 T01890061
KFIG 181554Z AUTO VRB03KT 10SM FEW032 SCT040 17/07 A3008 RMK AO2 SLP187 T01720067
KFIG 181454Z AUTO 00000KT 10SM CLR 16/10 A3008 RMK AO2 SLP186 T01560100 51007
KFIG 181354Z AUTO 00000KT 10SM FEW003 12/10 A3008 RMK AO2 SLP187 T01170100
KFIG 181316Z AUTO 00000KT 10SM SCT002 11/09 A3007 RMK AO2 T01060089
KFIG 181305Z AUTO 00000KT 5SM BR BKN002 BKN050 09/08 A3006 RMK AO2 T00890083
KFIG 181254Z AUTO 21003KT 2SM BR BKN002 OVC050 08/08 A3006 RMK AO2 VIS 1 1/4V3 SLP184 T00830083
KFIG 181243Z AUTO 00000KT 4SM BR BKN002 OVC050 08/08 A3006 RMK AO2 T00830083
KFIG 181228Z AUTO 00000KT 4SM BR SCT002 OVC050 08/08 A3006 RMK AO2 T00830078
KFIG 181154Z AUTO 00000KT 5SM BR OVC050 07/07 A3006 RMK AO2 SLP181 T00720072 10083 20056 53013
KFIG 181126Z AUTO 00000KT 5SM BR OVC050 07/07 A3005 RMK AO2 T00670067
KFIG 181119Z AUTO 00000KT 2 1/2SM BR OVC050 07/06 A3005 RMK AO2 T00670061
KFIG 181102Z AUTO 00000KT 1/2SM FG SCT002 OVC055 06/06 A3004 RMK AO2 T00610056
KFIG 181054Z AUTO 00000KT 1/4SM FG BKN002 OVC055 06/06 A3004 RMK AO2 SLP175 T00610061
KFIG 181013Z AUTO 00000KT 1/4SM FG BKN002 BKN050 07/06 A3003 RMK AO2 T00670061
KFIG 181008Z AUTO 00000KT 3/4SM BR SCT002 BKN050 06/06 A3003 RMK AO2 T00610061
KFIG 180954Z AUTO 00000KT 5SM BR FEW002 OVC050 07/06 A3002 RMK AO2 SLP168 T00670061
KFIG 180952Z AUTO 00000KT 3SM BR FEW002 OVC050 07/06 A3002 RMK AO2
KFIG 180949Z AUTO 00000KT 1SM BR SCT002 OVC050 07/06 A3002 RMK AO2
KFIG 180942Z AUTO 00000KT 1/4SM FG SCT002 OVC050 06/06 A3002 RMK AO2 T00610061
KFIG 180928Z AUTO 00000KT 1/4SM FG BKN002 BKN055 06/06 A3002 RMK AO2 T00560056
KFIG 180924Z AUTO 00000KT 3/4SM BR SCT002 BKN055 06/06 A3002 RMK AO2 T00560056
KFIG 180921Z AUTO 00000KT 2 1/2SM BR FEW002 BKN055 06/06 A3002 RMK AO2 T00610056
KFIG 180854Z AUTO 00000KT 10SM BKN055 07/06 A3002 RMK AO2 SLP165 T00670061 53001
KFIG 180754Z AUTO 00000KT 9SM SCT060 07/06 A3000 RMK AO2 SLP159 T00670061
KFIG 180654Z AUTO 00000KT 10SM BKN060 07/07 A3000 RMK AO2 SLP159 T00720067
KFIG 180554Z AUTO 00000KT 9SM OVC055 08/07 A3001 RMK AO2 SLP162 T00780072 10128 20072 50001
KFIG 180454Z AUTO 00000KT 10SM FEW055 08/07 A3001 RMK AO2 SLP163 T00780067 402000061
KFIG 180354Z AUTO 35004KT 10SM CLR 08/07 A3001 RMK AO2 SLP163 T00830072
KFIG 180254Z AUTO 00000KT 10SM CLR 09/08 A3001 RMK AO2 SLP165 T00890078 52006
KFIG 180154Z AUTO 34005KT 10SM SCT055 10/08 A3000 RMK AO2 SLP164 T01000083
KFIG 180054Z AUTO 36004KT 10SM CLR 11/09 A3000 RMK AO2 SLP162 T01110089
KFIG 172354Z AUTO 35005KT 10SM CLR 13/10 A2999 RMK AO2 SLP159 T01280100 10200 20128 53001
KFIG 172254Z AUTO 29004KT 10SM CLR 17/08 A2999 RMK AO2 SLP156 T01720078
KFIG 172154Z AUTO 27004KT 10SM CLR 19/08 A2999 RMK AO2 SLP156 T01890078
KFIG 172054Z AUTO 26004KT 10SM FEW060 18/07 A2999 RMK AO2 SLP155 T01830072 55008
KFIG 171954Z AUTO 22008KT 10SM FEW050 20/08 A2999 RMK AO2 SLP153 T02000078
KFIG 171854Z AUTO 24007KT 10SM CLR 19/07 A2999 RMK AO2 SLP155 T01940072
KFIG 171754Z AUTO 26006KT 10SM SCT048 18/08 A3001 RMK AO2 SLP163 T01830078 10194 20067 58021
KFIG 171654Z AUTO 19010KT 10SM SCT050 18/08 A3004 RMK AO2 SLP171 T01830083
KFIG 171554Z AUTO VRB05KT 10SM CLR 17/08 A3006 RMK AO2 SLP180 T01670083
KFIG 171454Z AUTO 20005KT 10SM CLR 13/09 A3008 RMK AO2 SLP188 T01330089 58004
KFIG 171354Z AUTO 00000KT 10SM SCT002 09/09 A3009 RMK AO2 SLP193 T00940089